createdAt,value
2023-02-17T00:01:38.792Z,9.60
2023-02-17T00:04:06.929Z,9.60
2023-02-17T00:06:35.089Z,9.60
2023-02-17T00:09:03.679Z,9.60
2023-02-17T00:11:31.789Z,9.70
2023-02-17T00:14:00.648Z,9.70
2023-02-17T00:16:30.640Z,9.70
2023-02-17T00:19:01.932Z,9.70
2023-02-17T00:21:33.135Z,9.60
2023-02-17T00:24:01.860Z,9.70
2023-02-17T00:26:30.313Z,9.70
2023-02-17T00:28:59.941Z,9.70
2023-02-17T00:31:29.406Z,9.70
2023-02-17T00:34:00.549Z,9.70
2023-02-17T00:36:29.029Z,9.70
2023-02-17T00:38:58.750Z,9.70
2023-02-17T00:41:29.352Z,9.70
2023-02-17T00:43:59.085Z,9.70
2023-02-17T00:46:28.982Z,9.70
2023-02-17T00:48:58.538Z,9.80
2023-02-17T00:51:26.983Z,9.80
2023-02-17T00:53:55.032Z,9.80
2023-02-17T00:56:23.108Z,9.80
2023-02-17T00:58:51.246Z,9.80
2023-02-17T01:01:19.380Z,9.80
2023-02-17T01:03:48.886Z,9.80
2023-02-17T01:06:24.370Z,9.80
2023-02-17T01:08:52.521Z,9.80
2023-02-17T01:11:26.105Z,9.80
2023-02-17T01:13:55.656Z,9.80
2023-02-17T01:16:27.488Z,9.80
2023-02-17T01:18:57.364Z,9.80
2023-02-17T01:21:28.575Z,9.80
2023-02-17T01:24:01.187Z,9.90
2023-02-17T01:26:32.825Z,9.90
2023-02-17T01:29:02.846Z,9.90
2023-02-17T01:31:31.222Z,9.90
2023-02-17T01:34:04.092Z,9.90
2023-02-17T01:36:33.388Z,9.90
2023-02-17T01:39:02.052Z,9.90
2023-02-17T01:41:30.560Z,9.90
2023-02-17T01:44:11.929Z,9.90
2023-02-17T01:46:42.567Z,9.90
2023-02-17T01:49:24.179Z,9.90
2023-02-17T01:51:57.935Z,9.90
2023-02-17T01:54:30.443Z,9.90
2023-02-17T01:57:02.823Z,9.90
2023-02-17T01:59:33.690Z,9.90
2023-02-17T02:02:06.794Z,10.00
2023-02-17T02:04:41.854Z,10.00
2023-02-17T02:07:17.840Z,9.90
2023-02-17T02:09:51.917Z,10.00
2023-02-17T02:12:22.930Z,10.00
2023-02-17T02:14:52.710Z,10.00
2023-02-17T02:17:36.823Z,10.00
2023-02-17T02:20:47.154Z,10.00
2023-02-17T02:23:49.740Z,10.00
2023-02-17T02:26:54.113Z,10.00
2023-02-17T02:30:02.213Z,10.00
2023-02-17T02:32:49.599Z,10.00
2023-02-17T02:35:26.757Z,10.00
2023-02-17T02:38:05.970Z,10.00
2023-02-17T02:40:44.370Z,10.00
2023-02-17T02:43:17.303Z,10.00
2023-02-17T02:45:45.621Z,10.00
2023-02-17T02:48:15.196Z,10.00
2023-02-17T02:51:17.554Z,10.00
2023-02-17T02:54:27.953Z,10.10
2023-02-17T02:57:26.668Z,10.10
2023-02-17T03:00:15.229Z,10.10
2023-02-17T03:02:52.518Z,10.10
2023-02-17T03:05:32.908Z,10.10
2023-02-17T03:08:09.529Z,10.10
2023-02-17T03:10:44.989Z,10.10
2023-02-17T03:13:13.067Z,10.10
2023-02-17T03:15:41.916Z,10.10
2023-02-17T03:18:10.029Z,10.10
2023-02-17T03:20:44.805Z,10.20
2023-02-17T03:23:13.063Z,10.20
2023-02-17T03:25:41.314Z,10.20
2023-02-17T03:28:09.446Z,10.20
2023-02-17T03:30:37.982Z,10.20
2023-02-17T03:33:06.232Z,10.20
2023-02-17T03:35:34.308Z,10.20
2023-02-17T03:38:03.952Z,10.20
2023-02-17T03:40:32.407Z,10.20
2023-02-17T03:43:00.558Z,10.20
2023-02-17T03:45:28.656Z,10.20
2023-02-17T03:47:56.743Z,10.20
2023-02-17T03:50:24.906Z,10.20
2023-02-17T03:52:53.160Z,10.20
2023-02-17T03:55:22.708Z,10.20
2023-02-17T03:57:50.944Z,10.20
2023-02-17T04:00:19.924Z,10.20
2023-02-17T04:02:48.161Z,10.20
2023-02-17T04:05:16.504Z,10.20
2023-02-17T04:07:44.569Z,10.20
2023-02-17T04:10:12.813Z,10.20
2023-02-17T04:12:42.260Z,10.20
2023-02-17T04:15:10.849Z,10.20
2023-02-17T04:17:39.644Z,10.30
2023-02-17T04:20:09.826Z,10.30
2023-02-17T04:22:37.872Z,10.30
2023-02-17T04:25:06.479Z,10.30
2023-02-17T04:27:34.629Z,10.30
2023-02-17T04:30:05.225Z,10.30
2023-02-17T04:32:33.404Z,10.30
2023-02-17T04:35:01.546Z,10.30
2023-02-17T04:37:29.617Z,10.30
2023-02-17T04:39:57.699Z,10.30
2023-02-17T04:42:25.799Z,10.30
2023-02-17T04:44:53.813Z,10.30
2023-02-17T04:47:23.249Z,10.40
2023-02-17T04:49:51.386Z,10.40
2023-02-17T04:52:19.465Z,10.40
2023-02-17T04:54:47.503Z,10.40
2023-02-17T04:57:15.588Z,10.40
2023-02-17T04:59:43.670Z,10.40
2023-02-17T05:02:12.286Z,10.40
2023-02-17T05:04:41.785Z,10.40
2023-02-17T05:07:10.458Z,10.40
2023-02-17T05:09:38.524Z,10.40
2023-02-17T05:12:07.571Z,10.40
2023-02-17T05:14:35.604Z,10.40
2023-02-17T05:17:03.632Z,10.40
2023-02-17T05:19:31.948Z,10.40
2023-02-17T05:22:01.363Z,10.40
2023-02-17T05:24:29.625Z,10.40
2023-02-17T05:26:57.718Z,10.40
2023-02-17T05:29:25.750Z,10.40
2023-02-17T05:31:53.845Z,10.40
2023-02-17T05:34:21.914Z,10.40
2023-02-17T05:36:49.992Z,10.40
2023-02-17T05:39:19.375Z,10.40
2023-02-17T05:41:47.522Z,10.40
2023-02-17T05:44:16.567Z,10.40
2023-02-17T05:46:45.153Z,10.40
2023-02-17T05:49:18.215Z,10.40
2023-02-17T05:51:46.362Z,10.40
2023-02-17T05:54:14.430Z,10.40
2023-02-17T05:56:43.818Z,10.40
2023-02-17T05:59:11.920Z,10.40
2023-02-17T06:01:40.110Z,10.50
2023-02-17T06:04:08.240Z,10.50
2023-02-17T06:06:36.550Z,10.50
2023-02-17T06:09:05.125Z,10.50
2023-02-17T06:11:33.687Z,10.50
2023-02-17T06:14:03.133Z,10.50
2023-02-17T06:16:31.528Z,10.50
2023-02-17T06:19:02.145Z,10.50
2023-02-17T06:21:30.272Z,10.50
2023-02-17T06:23:58.422Z,10.50
2023-02-17T06:26:26.796Z,10.50
2023-02-17T06:28:54.923Z,10.50
2023-02-17T06:31:24.468Z,10.50
2023-02-17T06:33:52.604Z,10.50
2023-02-17T06:36:20.649Z,10.50
2023-02-17T06:38:48.707Z,10.50
2023-02-17T06:41:16.798Z,10.50
2023-02-17T06:43:44.958Z,10.50
2023-02-17T06:46:13.249Z,10.50
2023-02-17T06:48:42.765Z,10.60
2023-02-17T06:51:10.839Z,10.60
2023-02-17T06:53:38.919Z,10.50
2023-02-17T06:56:08.069Z,10.50
2023-02-17T06:58:37.869Z,10.60
2023-02-17T07:01:08.059Z,10.60
2023-02-17T07:03:36.131Z,10.60
2023-02-17T07:06:06.779Z,10.60
2023-02-17T07:08:35.410Z,10.60
2023-02-17T07:11:07.067Z,10.60
2023-02-17T07:13:35.440Z,10.60
2023-02-17T07:16:04.010Z,10.50
2023-02-17T07:18:32.237Z,10.50
2023-02-17T07:21:00.599Z,10.50
2023-02-17T07:23:30.027Z,10.50
2023-02-17T07:26:02.020Z,10.50
2023-02-17T07:28:30.161Z,10.50
2023-02-17T07:30:58.262Z,10.50
2023-02-17T07:33:26.295Z,10.50
2023-02-17T07:35:54.349Z,10.50
2023-02-17T07:38:22.454Z,10.50
2023-02-17T07:40:51.904Z,10.50
2023-02-17T07:43:19.956Z,10.50
2023-02-17T07:45:48.086Z,10.50
2023-02-17T07:48:16.216Z,10.50
2023-02-17T07:50:44.261Z,10.50
2023-02-17T07:53:12.470Z,10.50
2023-02-17T07:55:40.489Z,10.50
2023-02-17T07:58:09.914Z,10.50
2023-02-17T08:00:38.066Z,10.50
2023-02-17T08:03:06.211Z,10.50
2023-02-17T08:05:34.266Z,10.50
2023-02-17T08:08:19.787Z,10.50
2023-02-17T08:11:05.982Z,10.50
2023-02-17T08:13:35.567Z,10.50
2023-02-17T08:16:03.759Z,10.50
2023-02-17T08:18:36.241Z,10.60
2023-02-17T08:21:06.571Z,10.60
2023-02-17T08:23:35.202Z,10.60
2023-02-17T08:26:03.364Z,10.60
2023-02-17T08:28:32.548Z,10.60
2023-02-17T08:31:02.824Z,10.60
2023-02-17T08:33:31.120Z,10.70
2023-02-17T08:35:59.332Z,10.70
2023-02-17T08:38:27.453Z,10.70
2023-02-17T08:40:55.568Z,10.70
2023-02-17T08:43:23.606Z,10.70
2023-02-17T08:45:51.780Z,10.70
2023-02-17T08:48:21.256Z,10.70
2023-02-17T08:50:49.544Z,10.70
2023-02-17T08:53:17.636Z,10.80
2023-02-17T08:55:49.603Z,10.80
2023-02-17T08:58:18.168Z,10.80
2023-02-17T09:00:46.342Z,10.80
2023-02-17T09:03:14.626Z,10.80
2023-02-17T09:05:44.169Z,10.80
2023-02-17T09:08:12.349Z,10.80
2023-02-17T09:10:40.744Z,10.80
2023-02-17T09:13:09.080Z,10.80
2023-02-17T09:15:37.336Z,10.80
2023-02-17T09:18:05.608Z,10.80
2023-02-17T09:20:34.077Z,10.80
2023-02-17T09:23:03.545Z,10.90
2023-02-17T09:25:31.595Z,10.90
2023-02-17T09:28:00.035Z,10.90
2023-02-17T09:30:28.449Z,10.90
2023-02-17T09:32:56.633Z,10.90
2023-02-17T09:35:25.568Z,11.00
2023-02-17T09:37:54.017Z,11.00
2023-02-17T09:40:37.388Z,11.00
2023-02-17T09:43:05.532Z,11.10
2023-02-17T09:45:37.131Z,11.10
2023-02-17T09:48:12.202Z,11.10
2023-02-17T09:50:50.210Z,11.10
2023-02-17T09:53:28.183Z,11.10
2023-02-17T09:56:02.497Z,11.10
2023-02-17T09:58:37.744Z,11.20
2023-02-17T10:01:12.436Z,11.20
2023-02-17T10:03:45.582Z,11.20
2023-02-17T10:06:21.296Z,11.20
2023-02-17T10:08:54.453Z,11.20
2023-02-17T10:11:32.749Z,11.30
2023-02-17T10:14:06.860Z,11.30
2023-02-17T10:16:44.185Z,11.30
2023-02-17T10:19:19.978Z,11.30
2023-02-17T10:21:59.796Z,11.40
2023-02-17T10:24:27.984Z,11.40
2023-02-17T10:27:25.771Z,11.40
2023-02-17T10:30:20.742Z,11.40
2023-02-17T10:33:01.235Z,11.40
2023-02-17T10:35:52.073Z,11.40
2023-02-17T10:38:42.231Z,11.50
2023-02-17T10:41:15.765Z,11.50
2023-02-17T10:43:47.150Z,11.50
2023-02-17T10:46:20.306Z,11.50
2023-02-17T10:48:53.260Z,11.50
2023-02-17T10:51:25.966Z,11.60
2023-02-17T10:54:01.313Z,11.60
2023-02-17T10:56:39.290Z,11.60
2023-02-17T10:59:21.665Z,11.60
2023-02-17T11:01:50.754Z,11.70
2023-02-17T11:04:19.169Z,11.70
2023-02-17T11:06:52.451Z,11.70
2023-02-17T11:09:28.751Z,11.80
2023-02-17T11:12:03.047Z,11.80
2023-02-17T11:14:36.097Z,11.80
2023-02-17T11:17:17.445Z,11.90
2023-02-17T11:19:58.032Z,11.90
2023-02-17T11:22:37.027Z,11.90
2023-02-17T11:25:20.716Z,12.00
2023-02-17T11:27:53.452Z,12.00
2023-02-17T11:30:24.987Z,12.00
2023-02-17T11:32:54.317Z,12.00
2023-02-17T11:35:28.137Z,12.00
2023-02-17T11:38:03.257Z,12.10
2023-02-17T11:40:34.145Z,12.20
2023-02-17T11:43:04.780Z,12.10
2023-02-17T11:45:45.002Z,12.20
2023-02-17T11:48:43.853Z,12.20
2023-02-17T11:51:22.625Z,12.20
2023-02-17T11:54:04.364Z,12.20
2023-02-17T11:56:37.954Z,12.30
2023-02-17T11:59:34.148Z,12.30
2023-02-17T12:02:18.753Z,12.30
2023-02-17T12:05:21.604Z,12.40
2023-02-17T12:08:22.976Z,12.40
2023-02-17T12:11:07.021Z,12.40
2023-02-17T12:13:53.638Z,12.50
2023-02-17T12:16:46.811Z,12.50
2023-02-17T12:19:42.586Z,12.50
2023-02-17T12:22:19.872Z,12.50
2023-02-17T12:25:25.766Z,12.50
2023-02-17T12:28:36.915Z,12.50
2023-02-17T12:31:16.587Z,12.50
2023-02-17T12:33:59.655Z,12.40
2023-02-17T12:36:35.678Z,12.50
2023-02-17T12:39:14.562Z,12.50
2023-02-17T12:41:49.252Z,12.40
2023-02-17T12:44:23.541Z,12.50
2023-02-17T12:46:57.731Z,12.50
2023-02-17T12:49:35.340Z,12.50
2023-02-17T12:52:15.515Z,12.50
2023-02-17T12:54:50.407Z,12.50
2023-02-17T12:57:25.046Z,12.50
2023-02-17T12:59:54.729Z,12.50
2023-02-17T13:02:38.514Z,12.50
2023-02-17T13:05:26.790Z,12.50
2023-02-17T13:08:02.144Z,12.50
2023-02-17T13:10:36.816Z,12.50
2023-02-17T13:13:11.417Z,12.50
2023-02-17T13:15:43.519Z,12.50
2023-02-17T13:18:28.502Z,12.50
2023-02-17T13:21:01.091Z,12.50
2023-02-17T13:23:39.140Z,12.50
2023-02-17T13:26:33.091Z,12.50
2023-02-17T13:29:20.893Z,12.40
2023-02-17T13:31:54.098Z,12.50
2023-02-17T13:34:31.791Z,12.40
2023-02-17T13:37:03.509Z,12.40
2023-02-17T13:39:38.448Z,12.40
2023-02-17T13:42:38.593Z,12.40
2023-02-17T13:45:21.103Z,12.40
2023-02-17T13:47:52.887Z,12.40
2023-02-17T13:50:33.579Z,12.40
2023-02-17T13:53:03.167Z,12.40
2023-02-17T13:55:32.762Z,12.30
2023-02-17T13:58:01.206Z,12.30
2023-02-17T14:00:31.669Z,12.30
2023-02-17T14:03:07.241Z,12.20
2023-02-17T14:05:43.731Z,12.20
2023-02-17T14:08:19.753Z,12.20
2023-02-17T14:10:49.769Z,12.20
2023-02-17T14:13:18.109Z,12.10
2023-02-17T14:15:56.702Z,12.20
2023-02-17T14:18:36.509Z,12.20
2023-02-17T14:21:08.922Z,12.20
2023-02-17T14:23:48.325Z,12.10
2023-02-17T14:26:33.532Z,12.10
2023-02-17T14:29:05.849Z,12.00
2023-02-17T14:31:40.127Z,12.00
2023-02-17T14:34:13.974Z,12.00
2023-02-17T14:36:43.276Z,12.00
2023-02-17T14:39:16.752Z,12.00
2023-02-17T14:41:46.338Z,11.90
2023-02-17T14:44:14.468Z,11.90
2023-02-17T14:46:42.595Z,11.90
2023-02-17T14:49:10.870Z,11.90
2023-02-17T14:51:40.195Z,11.90
2023-02-17T14:54:15.842Z,11.90
2023-02-17T14:56:52.703Z,11.90
2023-02-17T14:59:20.873Z,11.90
2023-02-17T15:01:49.030Z,11.80
2023-02-17T15:04:17.200Z,11.80
2023-02-17T15:06:49.362Z,11.80
2023-02-17T15:09:22.767Z,11.80
2023-02-17T15:11:52.399Z,11.80
2023-02-17T15:14:22.437Z,11.80
2023-02-17T15:16:51.244Z,11.80
2023-02-17T15:19:19.511Z,11.80
2023-02-17T15:21:51.153Z,11.80
2023-02-17T15:24:28.967Z,11.80
2023-02-17T15:26:59.637Z,11.80
2023-02-17T15:29:28.521Z,11.80
2023-02-17T15:32:03.620Z,11.80
2023-02-17T15:34:46.163Z,11.80
2023-02-17T15:37:17.866Z,11.80
2023-02-17T15:39:46.561Z,11.80
2023-02-17T15:42:16.856Z,11.80
2023-02-17T15:44:52.597Z,11.80
2023-02-17T15:47:22.064Z,11.80
2023-02-17T15:49:50.497Z,11.80
2023-02-17T15:52:23.609Z,11.80
2023-02-17T15:54:51.953Z,11.80
2023-02-17T15:57:25.690Z,11.80
2023-02-17T15:59:55.452Z,11.80
2023-02-17T16:02:26.289Z,11.80
2023-02-17T16:04:54.985Z,11.80
2023-02-17T16:07:23.440Z,11.80
2023-02-17T16:09:51.957Z,11.80
2023-02-17T16:12:27.035Z,11.70
2023-02-17T16:14:57.594Z,11.70
2023-02-17T16:17:27.554Z,11.80
2023-02-17T16:19:56.078Z,11.80
2023-02-17T16:22:27.116Z,11.80
2023-02-17T16:24:55.500Z,11.80
2023-02-17T16:27:25.230Z,11.80
2023-02-17T16:29:53.635Z,11.80
2023-02-17T16:32:22.030Z,11.80
2023-02-17T16:34:50.915Z,11.70
2023-02-17T16:37:19.912Z,11.80
2023-02-17T16:39:48.540Z,11.70
2023-02-17T16:42:17.412Z,11.80
2023-02-17T16:44:49.451Z,11.70
2023-02-17T16:47:22.415Z,11.80
2023-02-17T16:49:52.064Z,11.80
2023-02-17T16:52:27.004Z,11.70
2023-02-17T16:54:55.747Z,11.80
2023-02-17T16:57:24.926Z,11.70
2023-02-17T16:59:54.599Z,11.70
2023-02-17T17:02:22.961Z,11.70
2023-02-17T17:04:52.332Z,11.70
2023-02-17T17:07:20.891Z,11.70
2023-02-17T17:10:14.768Z,11.70
2023-02-17T17:12:40.156Z,11.70
2023-02-17T17:15:14.301Z,11.70
2023-02-17T17:17:46.934Z,11.70
2023-02-17T17:20:18.494Z,11.70
2023-02-17T17:22:49.383Z,11.70
2023-02-17T17:25:18.218Z,11.70
2023-02-17T17:27:46.830Z,11.70
2023-02-17T17:30:21.842Z,11.70
2023-02-17T17:32:50.460Z,11.70
2023-02-17T17:35:20.078Z,11.70
2023-02-17T17:37:49.384Z,11.70
2023-02-17T17:40:21.381Z,11.70
2023-02-17T17:42:50.106Z,11.70
2023-02-17T17:45:20.367Z,11.70
2023-02-17T17:47:48.801Z,11.70
2023-02-17T17:50:20.925Z,11.70
2023-02-17T17:52:50.150Z,11.70
2023-02-17T17:55:18.834Z,11.70
2023-02-17T17:57:48.192Z,11.70
2023-02-17T18:00:20.356Z,11.70
2023-02-17T18:02:48.991Z,11.70
2023-02-17T18:05:17.969Z,11.70
2023-02-17T18:07:49.713Z,11.70
2023-02-17T18:10:18.545Z,11.70
2023-02-17T18:12:48.988Z,11.70
2023-02-17T18:15:22.620Z,11.70
2023-02-17T18:17:52.907Z,11.70
2023-02-17T18:20:21.642Z,11.70
2023-02-17T18:22:50.127Z,11.70
2023-02-17T18:25:19.335Z,11.70
2023-02-17T18:27:48.939Z,11.70
2023-02-17T18:30:23.386Z,11.70
2023-02-17T18:32:52.825Z,11.70
2023-02-17T18:35:22.077Z,11.70
2023-02-17T18:45:26.459Z,11.70
2023-02-17T18:47:04.241Z,11.70
2023-02-17T18:49:32.905Z,11.70
2023-02-17T18:52:01.428Z,11.70
2023-02-17T18:54:29.957Z,11.70
2023-02-17T18:57:02.873Z,11.70
2023-02-17T18:59:33.308Z,11.70
2023-02-17T19:02:08.879Z,11.70
2023-02-17T19:04:37.808Z,11.70
2023-02-17T19:07:07.390Z,11.70
2023-02-17T19:09:37.567Z,11.70
2023-02-17T19:12:10.056Z,11.70
2023-02-17T19:14:39.078Z,11.70
2023-02-17T19:17:10.053Z,11.60
2023-02-17T19:19:38.891Z,11.60
2023-02-17T19:22:08.682Z,11.60
2023-02-17T19:24:38.148Z,11.60
2023-02-17T19:27:06.933Z,11.60
2023-02-17T19:29:36.100Z,11.60
2023-02-17T19:32:06.196Z,11.60
2023-02-17T19:34:38.636Z,11.50
2023-02-17T19:37:07.090Z,11.50
2023-02-17T19:39:36.496Z,11.50
2023-02-17T19:42:05.676Z,11.50
2023-02-17T19:44:34.573Z,11.50
2023-02-17T19:47:03.076Z,11.40
2023-02-17T19:49:31.504Z,11.40
2023-02-17T19:52:01.230Z,11.40
2023-02-17T19:54:29.587Z,11.40
2023-02-17T19:56:57.858Z,11.40
2023-02-17T19:59:26.522Z,11.40
2023-02-17T20:01:55.032Z,11.30
2023-02-17T20:04:23.532Z,11.30
2023-02-17T20:06:52.628Z,11.30
2023-02-17T20:09:24.238Z,11.30
2023-02-17T20:11:53.491Z,11.30
2023-02-17T20:14:22.728Z,11.20
2023-02-17T20:16:53.225Z,11.20
2023-02-17T20:19:21.627Z,11.20
2023-02-17T20:21:50.074Z,11.20
2023-02-17T20:24:18.492Z,11.20
2023-02-17T20:26:53.557Z,11.20
2023-02-17T20:29:22.361Z,11.20
2023-02-17T20:31:50.785Z,11.20
2023-02-17T20:34:31.799Z,11.20
2023-02-17T20:37:01.707Z,11.10
2023-02-17T20:39:32.293Z,11.10
2023-02-17T20:42:02.782Z,11.10
2023-02-17T20:44:31.361Z,11.10
2023-02-17T20:47:00.221Z,11.10
2023-02-17T20:49:28.877Z,11.10
2023-02-17T20:51:57.250Z,11.10
2023-02-17T20:54:26.200Z,11.10
2023-02-17T20:56:57.622Z,11.10
2023-02-17T20:59:28.129Z,11.10
2023-02-17T21:01:56.618Z,11.10
2023-02-17T21:04:25.033Z,11.10
2023-02-17T21:06:53.403Z,11.10
2023-02-17T21:09:21.847Z,11.10
2023-02-17T21:11:50.339Z,11.10
2023-02-17T21:14:18.688Z,11.10
2023-02-17T21:16:48.648Z,11.10
2023-02-17T21:19:19.248Z,11.10
2023-02-17T21:21:47.873Z,11.10
2023-02-17T21:24:16.408Z,11.10
2023-02-17T21:26:44.695Z,11.10
2023-02-17T21:29:13.232Z,11.00
2023-02-17T21:31:41.726Z,11.00
2023-02-17T21:34:11.732Z,11.00
2023-02-17T21:36:40.692Z,11.00
2023-02-17T21:39:08.979Z,11.00
2023-02-17T21:41:37.350Z,11.00
2023-02-17T21:44:23.359Z,11.00
2023-02-17T21:46:52.717Z,10.90
2023-02-17T21:49:22.308Z,10.90
2023-02-17T21:51:50.690Z,10.90
2023-02-17T21:54:18.903Z,10.90
2023-02-17T21:56:47.333Z,10.90
2023-02-17T21:59:15.511Z,10.90
2023-02-17T22:01:43.694Z,10.90
2023-02-17T22:04:11.844Z,10.90
2023-02-17T22:06:43.122Z,10.80
2023-02-17T22:09:14.533Z,10.80
2023-02-17T22:11:43.844Z,10.80
2023-02-17T22:14:16.962Z,10.80
2023-02-17T22:16:45.984Z,10.80
2023-02-17T22:19:20.445Z,10.80
2023-02-17T22:21:52.018Z,10.80
2023-02-17T22:24:21.576Z,10.80
2023-02-17T22:26:50.829Z,10.80
2023-02-17T22:29:21.317Z,10.80
2023-02-17T22:31:50.347Z,10.80
2023-02-17T22:34:18.782Z,10.70
2023-02-17T22:36:46.821Z,10.70
2023-02-17T22:39:16.880Z,10.70
2023-02-17T22:41:45.115Z,10.70
2023-02-17T22:44:13.353Z,10.70
2023-02-17T22:46:41.538Z,10.70
2023-02-17T22:49:10.006Z,10.60
2023-02-17T22:51:40.681Z,10.60
2023-02-17T22:54:09.854Z,10.60
2023-02-17T22:56:40.258Z,10.60
2023-02-17T22:59:08.368Z,10.60
2023-02-17T23:01:38.255Z,10.60
2023-02-17T23:04:07.372Z,10.60
2023-02-17T23:06:38.444Z,10.60
2023-02-17T23:09:10.525Z,10.60
2023-02-17T23:11:50.958Z,10.60
2023-02-17T23:14:23.293Z,10.60
2023-02-17T23:16:52.745Z,10.60
2023-02-17T23:19:23.681Z,10.60
2023-02-17T23:21:54.967Z,10.60
2023-02-17T23:24:26.021Z,10.60
2023-02-17T23:26:56.781Z,10.60
2023-02-17T23:29:25.016Z,10.60
2023-02-17T23:31:53.434Z,10.60
2023-02-17T23:34:21.876Z,10.60
2023-02-17T23:36:50.636Z,10.60
2023-02-17T23:39:19.122Z,10.60
2023-02-17T23:41:47.244Z,10.60
2023-02-17T23:44:17.225Z,10.60
2023-02-17T23:46:47.293Z,10.60
2023-02-17T23:49:17.150Z,10.60
2023-02-17T23:51:47.764Z,10.60
2023-02-17T23:54:16.579Z,10.60
2023-02-17T23:56:44.726Z,10.60
2023-02-17T23:59:13.192Z,10.60
